Time;durP1;ratioP1;P1;durP2;ratioP2;P2;SDS_P1;SDS_P2;PMS_P1;PMS_P2;Temp;Humidity;BMP_temperature;BMP_pressure;BME280_temperature;BME280_humidity;BME280_pressure;Samples;Min_cycle;Max_cycle;Signal;HPM_P1;HPM_P2
2021/01/02 00:02:45;;;;;;;49.75;29.23;;;;;;;5.93;76.35;99331.09;6130538;23;20024;-82
2021/01/02 00:05:14;;;;;;;49.50;29.23;;;;;;;5.97;76.42;99331.78;6156456;23;20026;-82
2021/01/02 00:08:17;;;;;;;51.55;28.52;;;;;;;5.94;76.29;99331.94;6156788;23;20025;-82
2021/01/02 00:11:08;;;;;;;53.97;28.35;;;;;;;5.95;76.24;99333.63;6130867;23;20021;-82
2021/01/02 00:13:58;;;;;;;54.72;29.13;;;;;;;5.94;75.77;99345.00;6156464;23;20064;-82
2021/01/02 00:16:29;;;;;;;47.85;27.23;;;;;;;5.95;76.29;99333.63;6156622;23;20044;-82
2021/01/02 00:19:02;;;;;;;50.33;29.55;;;;;;;5.92;76.29;99342.47;6156621;23;20028;-82
2021/01/02 00:21:41;;;;;;;49.78;27.95;;;;;;;5.91;76.27;99342.53;6156502;23;20456;-81
2021/01/02 00:24:26;;;;;;;54.83;29.52;;;;;;;5.90;76.28;99346.06;6130037;23;20471;-82
2021/01/02 00:27:21;;;;;;;53.38;28.98;;;;;;;5.89;76.00;99347.81;6156649;23;20021;-82
2021/01/02 00:30:00;;;;;;;53.75;29.00;;;;;;;5.87;76.14;99342.66;6153837;23;20023;-82
2021/01/02 00:32:45;;;;;;;48.95;26.67;;;;;;;5.90;76.76;99348.69;6155960;23;20456;-82
2021/01/02 00:35:17;;;;;;;45.72;26.83;;;;;;;5.87;76.07;99341.81;6156096;23;20025;-82
2021/01/02 00:37:46;;;;;;;44.90;27.85;;;;;;;5.87;76.47;99342.66;6156362;23;20025;-82
2021/01/02 00:40:17;;;;;;;47.05;27.52;;;;;;;5.85;76.25;99343.63;6156369;23;20018;-82
2021/01/02 00:42:51;;;;;;;48.13;28.10;;;;;;;5.85;76.53;99327.97;6155904;23;20025;-82
2021/01/02 00:45:25;;;;;;;47.00;26.38;;;;;;;5.82;76.21;99328.97;6156366;23;20021;-82
2021/01/02 00:47:52;;;;;;;50.78;29.88;;;;;;;5.81;76.24;99329.88;6155979;23;20032;-82
2021/01/02 00:50:20;;;;;;;46.55;26.95;;;;;;;5.80;76.61;99329.94;6156397;23;20352;-82
2021/01/02 00:53:14;;;;;;;48.13;27.50;;;;;;;5.75;75.81;99330.13;6156050;23;20036;-82
2021/01/02 00:55:57;;;;;;;45.53;27.33;;;;;;;5.79;76.56;99323.03;6130495;23;20044;-82
2021/01/02 00:59:06;;;;;;;51.53;29.92;;;;;;;5.72;75.61;99327.69;6155908;23;20100;-83
2021/01/02 01:01:40;;;;;;;49.92;30.25;;;;;;;5.71;75.90;99334.66;6101452;23;20333;-83
2021/01/02 01:04:40;;;;;;;53.13;32.25;;;;;;;5.65;75.66;99341.91;6129785;23;20032;-83
2021/01/02 01:07:08;;;;;;;47.10;27.67;;;;;;;5.66;76.51;99343.59;6129923;23;20460;-82
2021/01/02 01:09:39;;;;;;;52.85;29.45;;;;;;;5.64;76.56;99342.84;6155993;23;20022;-82
2021/01/02 01:12:07;;;;;;;53.00;28.85;;;;;;;5.63;76.79;99348.94;6130414;23;20029;-82
2021/01/02 01:14:35;;;;;;;49.15;28.77;;;;;;;5.62;76.79;99340.28;6156206;23;20029;-82
2021/01/02 01:17:02;;;;;;;51.60;30.35;;;;;;;5.62;76.83;99348.13;6156093;23;20029;-82
2021/01/02 01:19:29;;;;;;;45.50;26.65;;;;;;;5.63;76.91;99348.94;6156200;23;20022;-81
2021/01/02 01:22:05;;;;;;;50.60;28.95;;;;;;;5.61;76.83;99352.47;6156144;23;20022;-84
2021/01/02 01:24:56;;;;;;;46.60;27.15;;;;;;;5.60;76.60;99355.16;6130348;23;20028;-82
2021/01/02 01:27:43;;;;;;;47.40;27.27;;;;;;;5.60;76.52;99345.56;6156168;23;20022;-82
2021/01/02 01:30:19;;;;;;;47.50;27.20;;;;;;;5.61;76.35;99357.69;6156509;23;20028;-82
2021/01/02 01:32:59;;;;;;;48.05;28.20;;;;;;;5.60;76.29;99353.41;6156051;23;20080;-82
2021/01/02 01:35:27;;;;;;;46.55;28.88;;;;;;;5.64;76.84;99361.09;6129979;23;20360;-82
2021/01/02 01:37:56;;;;;;;51.17;29.08;;;;;;;5.63;76.52;99359.38;6155965;23;20408;-82
2021/01/02 01:40:26;;;;;;;48.08;28.90;;;;;;;5.61;76.76;99368.13;6154639;23;20021;-82
2021/01/02 01:43:04;;;;;;;47.65;28.42;;;;;;;5.59;76.08;99369.13;6130022;23;20349;-82
2021/01/02 01:45:39;;;;;;;47.75;27.95;;;;;;;5.59;76.29;99367.38;6155860;23;20393;-82
2021/01/02 01:48:23;;;;;;;49.10;28.65;;;;;;;5.59;76.31;99375.22;6156120;23;20029;-83
2021/01/02 01:51:04;;;;;;;44.95;29.15;;;;;;;5.58;76.14;99368.25;6157691;23;20028;-82
2021/01/02 01:53:43;;;;;;;51.65;31.25;;;;;;;5.58;76.27;99368.25;6131473;23;20029;-81
2021/01/02 01:56:15;;;;;;;48.60;28.85;;;;;;;5.56;76.38;99370.09;6158026;23;20021;-82
2021/01/02 01:58:46;;;;;;;49.95;29.95;;;;;;;5.57;76.49;99378.81;6157581;23;20018;-83
2021/01/02 02:01:20;;;;;;;54.35;31.17;;;;;;;5.57;76.70;99370.97;6132777;23;20025;-82
2021/01/02 02:04:18;;;;;;;37.50;21.45;;;;;;;5.53;76.21;99375.44;6131642;23;20030;-82
2021/01/02 02:06:45;;;;;;;48.58;29.02;;;;;;;5.58;76.83;99376.09;6157400;23;20360;-82
2021/01/02 02:09:21;;;;;;;47.97;28.73;;;;;;;5.53;76.35;99377.22;6157405;23;20021;-82
2021/01/02 02:12:04;;;;;;;48.22;29.13;;;;;;;5.52;76.34;99378.97;6158614;23;20025;-82
2021/01/02 02:14:43;;;;;;;49.53;29.73;;;;;;;5.52;76.17;99378.13;6131761;23;20061;-82
2021/01/02 02:17:16;;;;;;;56.72;30.80;;;;;;;5.52;76.65;99383.34;6158126;23;20025;-82
2021/01/02 02:19:57;;;;;;;48.75;29.58;;;;;;;5.48;76.29;99375.66;6157813;23;20017;-82
2021/01/02 02:22:26;;;;;;;53.25;31.15;;;;;;;5.52;77.11;99378.13;6132616;23;20326;-82
2021/01/02 02:24:54;;;;;;;55.30;30.98;;;;;;;5.50;77.00;99373.00;6157304;23;20484;-82
2021/01/02 02:27:26;;;;;;;50.15;29.75;;;;;;;5.51;77.11;99373.81;6132448;23;20096;-83
2021/01/02 02:30:11;;;;;;;49.67;29.20;;;;;;;5.50;76.56;99379.97;6157288;23;20027;-83
2021/01/02 02:32:48;;;;;;;49.90;30.10;;;;;;;5.49;76.55;99373.88;6157672;23;20026;-82
2021/01/02 02:35:16;;;;;;;55.35;29.45;;;;;;;5.53;77.28;99382.44;6131718;23;20029;-82
2021/01/02 02:37:46;;;;;;;51.05;30.30;;;;;;;5.51;76.89;99377.28;6157554;23;20022;-82
2021/01/02 02:40:17;;;;;;;49.30;29.65;;;;;;;5.53;77.09;99374.63;6157796;23;20029;-82
2021/01/02 02:43:02;;;;;;;51.88;29.52;;;;;;;5.48;76.47;99370.44;6157082;23;20026;-82
2021/01/02 02:45:30;;;;;;;53.95;30.15;;;;;;;5.51;76.50;99369.47;6157402;23;20024;-82
2021/01/02 02:48:00;;;;;;;57.42;29.85;;;;;;;5.51;76.75;99374.69;6157674;23;20357;-82
2021/01/02 02:50:27;;;;;;;53.20;31.67;;;;;;;5.52;76.96;99378.13;6157418;23;20022;-82
2021/01/02 02:53:10;;;;;;;52.03;30.08;;;;;;;5.48;76.57;99382.63;6156898;23;20026;-83
2021/01/02 02:55:42;;;;;;;49.08;28.30;;;;;;;5.50;76.39;99379.97;6157109;23;20040;-82
2021/01/02 02:58:10;;;;;;;52.50;29.42;;;;;;;5.49;76.74;99376.50;6131587;23;20025;-82
2021/01/02 03:00:56;;;;;;;52.85;29.58;;;;;;;5.45;76.29;99369.69;6156773;23;20097;-82
2021/01/02 03:03:55;;;;;;;55.22;30.98;;;;;;;5.42;76.25;99369.84;6155707;23;20080;-83
2021/01/02 03:07:02;;;;;;;54.35;30.17;;;;;;;5.40;76.57;99377.75;6157148;23;20092;-82
2021/01/02 03:10:03;;;;;;;55.42;29.70;;;;;;;5.37;76.49;99380.47;6157424;23;20024;-82
2021/01/02 03:13:14;;;;;;;48.20;27.83;;;;;;;5.34;76.40;99386.66;6156748;23;20026;-82
2021/01/02 03:16:06;;;;;;;51.05;27.27;;;;;;;5.37;76.86;99387.44;6136351;23;20020;-82
2021/01/02 03:18:56;;;;;;;49.10;27.52;;;;;;;5.37;76.90;99390.03;6115251;23;20018;-82
2021/01/02 03:21:50;;;;;;;51.95;29.02;;;;;;;5.37;77.05;99385.69;6131126;23;20041;-82
2021/01/02 03:24:51;;;;;;;49.05;27.73;;;;;;;5.39;76.83;99388.25;6142163;23;20022;-82
2021/01/02 03:27:55;;;;;;;50.30;27.73;;;;;;;5.37;76.31;99379.59;6127457;23;20033;-81
2021/01/02 03:31:12;;;;;;;54.85;29.60;;;;;;;5.37;76.27;99387.44;6154472;23;20029;-82
2021/01/02 03:36:48;;;;;;;46.42;26.83;;;;;;;5.38;77.08;99383.94;6186860;23;20451;-86
2021/01/02 03:48:10;;;;;;;54.53;28.58;;;;;;;5.34;76.61;99388.41;6124905;23;20024;-85
2021/01/02 03:51:57;;;;;;;50.92;28.15;;;;;;;5.33;76.46;99379.75;6116837;23;20032;-86
2021/01/02 03:54:34;;;;;;;49.28;25.50;;;;;;;5.37;77.14;99384.81;6123144;23;20049;-86
2021/01/02 03:57:10;;;;;;;52.88;28.88;;;;;;;5.35;77.04;99379.69;6124732;23;20018;-86
2021/01/02 03:59:49;;;;;;;48.67;26.95;;;;;;;5.36;76.93;99384.00;6123410;23;20041;-87
2021/01/02 04:02:30;;;;;;;55.42;30.20;;;;;;;5.34;76.77;99375.38;6122817;23;20093;-86
2021/01/02 04:04:58;;;;;;;52.05;29.20;;;;;;;5.37;77.18;99370.03;6101383;23;20364;-86
2021/01/02 04:07:34;;;;;;;52.22;28.20;;;;;;;5.38;77.00;99376.09;6125309;23;20041;-86
2021/01/02 04:10:06;;;;;;;49.90;28.27;;;;;;;5.37;76.78;99369.16;6130394;23;20421;-86
2021/01/02 04:12:47;;;;;;;53.88;29.40;;;;;;;5.40;76.85;99374.28;6119761;23;20029;-86
2021/01/02 04:15:16;;;;;;;55.50;30.35;;;;;;;5.37;76.99;99370.03;6130684;23;20535;-85
2021/01/02 04:18:03;;;;;;;54.47;29.92;;;;;;;5.37;76.43;99371.78;6131016;23;20022;-86
2021/01/02 04:20:34;;;;;;;46.53;26.25;;;;;;;5.39;77.23;99373.44;6131174;23;20093;-86
2021/01/02 04:23:09;;;;;;;45.58;26.17;;;;;;;5.39;77.21;99368.22;6132395;23;20535;-86
2021/01/02 04:25:53;;;;;;;51.88;31.02;;;;;;;5.35;76.16;99377.91;6131096;23;20022;-86
2021/01/02 04:28:24;;;;;;;49.83;29.27;;;;;;;5.39;76.67;99376.06;6107483;23;20411;-86
2021/01/02 04:31:05;;;;;;;53.35;29.52;;;;;;;5.38;76.58;99379.56;6130275;23;20033;-86
2021/01/02 04:33:44;;;;;;;;;;;;;;;;;;;;;
2021/01/02 04:36:20;;;;;;;52.28;28.80;;;;;;;5.41;76.33;99373.34;6156501;23;20329;-86
2021/01/02 04:38:47;;;;;;;54.50;29.40;;;;;;;5.43;77.01;99369.78;6130593;23;20350;-86
2021/01/02 04:41:21;;;;;;;53.33;30.15;;;;;;;5.40;76.14;99364.69;6130807;23;20029;-86
2021/01/02 04:43:49;;;;;;;51.72;29.52;;;;;;;5.43;76.78;99374.16;6130581;23;20029;-86
2021/01/02 04:46:16;;;;;;;50.78;28.65;;;;;;;5.42;76.62;99375.06;6130589;23;20025;-86
2021/01/02 04:48:48;;;;;;;53.55;30.45;;;;;;;5.42;77.00;99381.13;6130294;23;20017;-86
2021/01/02 04:51:18;;;;;;;52.88;28.83;;;;;;;5.41;76.66;99381.19;6130965;23;20392;-86
2021/01/02 04:53:51;;;;;;;51.17;29.20;;;;;;;5.41;76.49;99386.41;6130073;23;20104;-86
2021/01/02 04:56:20;;;;;;;54.20;28.38;;;;;;;5.45;76.97;99393.19;6156532;23;20025;-86
2021/01/02 04:58:48;;;;;;;54.05;28.67;;;;;;;5.45;77.04;99382.75;6130175;23;20096;-86
2021/01/02 05:01:14;;;;;;;47.55;28.45;;;;;;;5.45;76.96;99394.06;6130726;23;20100;-86
2021/01/02 05:03:56;;;;;;;56.42;30.23;;;;;;;5.44;76.47;99391.50;6154611;23;20022;-86
2021/01/02 05:06:28;;;;;;;48.78;28.45;;;;;;;5.47;76.60;99401.81;6130649;23;20026;-86
2021/01/02 05:09:18;;;;;;;49.17;28.73;;;;;;;5.45;76.28;99403.63;6130197;23;20372;-86
2021/01/02 05:11:59;;;;;;;52.70;29.23;;;;;;;5.45;76.12;99401.03;6119206;23;20021;-86
2021/01/02 05:17:29;;;;;;;51.83;29.67;;;;;;;5.48;76.63;99395.69;6145528;23;20028;-87
2021/01/02 05:20:20;;;;;;;53.63;31.50;;;;;;;5.44;76.14;99396.72;6155134;23;20093;-86
2021/01/02 05:22:50;;;;;;;52.33;29.08;;;;;;;5.46;76.69;99397.53;6130351;23;20365;-86
2021/01/02 05:25:18;;;;;;;54.08;31.08;;;;;;;5.46;76.68;99400.97;6130324;23;20080;-86
2021/01/02 05:27:53;;;;;;;56.88;30.00;;;;;;;5.43;76.60;99401.13;6155813;23;20025;-85
2021/01/02 05:30:55;;;;;;;59.47;32.83;;;;;;;5.43;76.20;99408.94;6156615;23;20018;-85
2021/01/02 05:33:36;;;;;;;55.40;31.55;;;;;;;5.45;76.30;99409.72;6095109;23;20085;-85
2021/01/02 05:36:55;;;;;;;;;;;;;;;;;;;;;
2021/01/02 05:39:55;;;;;;;61.88;33.70;;;;;;;5.44;75.99;99408.03;6155592;23;20037;-86
2021/01/02 05:42:56;;;;;;;57.00;30.85;;;;;;;5.45;76.26;99417.53;6154629;23;20049;-86
2021/01/02 05:45:43;;;;;;;66.93;35.47;;;;;;;5.43;76.04;99422.00;6130186;23;20030;-85
2021/01/02 05:48:25;;;;;;;68.90;35.42;;;;;;;5.43;76.35;99415.91;6130279;23;20460;-86
2021/01/02 05:51:12;;;;;;;63.80;33.15;;;;;;;5.43;76.43;99423.75;6132138;23;20017;-86
2021/01/02 05:53:41;;;;;;;62.15;32.80;;;;;;;5.44;76.69;99415.00;6129719;23;20017;-86
2021/01/02 05:56:45;;;;;;;67.40;35.03;;;;;;;5.38;76.28;99420.47;6156497;23;20017;-85
2021/01/02 05:59:41;;;;;;;57.65;30.13;;;;;;;5.39;76.63;99420.44;6156087;23;20018;-86
2021/01/02 06:02:40;;;;;;;59.17;32.83;;;;;;;5.41;76.50;99421.19;6126568;23;20408;-86
2021/01/02 06:05:18;;;;;;;63.70;34.15;;;;;;;5.45;76.87;99425.38;6155507;23;20443;-85
2021/01/02 06:07:53;;;;;;;62.58;33.47;;;;;;;5.43;76.36;99423.75;6130797;23;20045;-86
2021/01/02 06:11:15;;;;;;;;;;;;;;;;;;;;;
2021/01/02 06:13:57;;;;;;;67.25;32.33;;;;;;;5.44;76.41;99430.66;6136716;23;20092;-85
2021/01/02 06:16:30;;;;;;;62.13;32.33;;;;;;;5.45;76.89;99422.78;6131469;23;20028;-86
2021/01/02 06:19:24;;;;;;;62.17;33.00;;;;;;;5.43;76.33;99432.44;6156123;23;20026;-86
2021/01/02 06:21:51;;;;;;;68.72;36.03;;;;;;;5.44;76.80;99433.28;6129861;23;20029;-85
2021/01/02 06:24:24;;;;;;;63.30;34.28;;;;;;;5.43;76.67;99442.88;6129886;23;20021;-86
2021/01/02 06:26:53;;;;;;;61.83;33.65;;;;;;;5.45;77.03;99441.03;6155329;23;20018;-86
2021/01/02 06:32:56;;;;;;;65.38;32.92;;;;;;;5.49;77.10;99441.75;6155188;23;20017;-86
2021/01/02 06:35:28;;;;;;;58.65;31.08;;;;;;;5.49;76.74;99441.75;6131574;23;20025;-86
2021/01/02 06:37:57;;;;;;;65.43;35.53;;;;;;;5.48;76.56;99440.06;6132508;23;20048;-86
2021/01/02 06:40:26;;;;;;;67.72;34.30;;;;;;;5.48;76.86;99450.50;6131849;23;20024;-86
2021/01/02 06:43:03;;;;;;;64.60;34.25;;;;;;;5.48;76.59;99451.38;6131253;23;20026;-86
2021/01/02 06:45:44;;;;;;;71.55;35.35;;;;;;;5.45;76.34;99450.63;6133338;23;20026;-85
2021/01/02 06:51:42;;;;;;;64.30;33.90;;;;;;;5.43;76.10;99460.28;6157974;23;20017;-86
2021/01/02 06:54:39;;;;;;;68.13;35.28;;;;;;;5.41;76.38;99459.50;6136643;23;20478;-86
2021/01/02 07:00:43;;;;;;;70.82;35.95;;;;;;;5.40;76.51;99468.25;6129110;23;20021;-86
2021/01/02 07:04:05;;;;;;;70.90;35.30;;;;;;;5.35;76.24;99477.09;6132291;23;20104;-88
2021/01/02 07:06:42;;;;;;;70.47;36.72;;;;;;;5.37;76.54;99473.56;6131722;23;20017;-86
2021/01/02 07:09:29;;;;;;;72.80;36.53;;;;;;;5.31;75.94;99465.09;6131486;23;20524;-86
2021/01/02 07:12:34;;;;;;;73.65;38.30;;;;;;;5.29;76.28;99477.34;6132580;23;20029;-86
2021/01/02 07:15:50;;;;;;;72.35;35.85;;;;;;;5.27;75.85;99475.72;6122205;23;20080;-86
2021/01/02 07:18:42;;;;;;;74.32;36.67;;;;;;;5.24;76.18;99475.84;6069454;23;20045;-86
2021/01/02 07:21:40;;;;;;;80.20;38.28;;;;;;;5.21;75.79;99479.41;6132198;23;20535;-85
2021/01/02 07:24:48;;;;;;;69.60;33.38;;;;;;;5.19;76.09;99468.19;6045621;23;20030;-86
2021/01/02 07:27:18;;;;;;;62.05;33.13;;;;;;;5.19;76.87;99470.78;6043018;23;20026;-85
2021/01/02 07:30:32;;;;;;;71.22;36.28;;;;;;;5.12;76.19;99464.97;6044312;23;20025;-86
2021/01/02 07:33:18;;;;;;;63.53;33.08;;;;;;;5.14;76.73;99477.94;6054792;23;20444;-87
2021/01/02 07:36:23;;;;;;;63.92;31.77;;;;;;;5.15;76.74;99482.25;6041095;23;20106;-86
2021/01/02 07:38:59;;;;;;;68.13;33.70;;;;;;;5.17;76.93;99480.44;6042802;23;20427;-86
2021/01/02 07:41:42;;;;;;;69.63;33.90;;;;;;;5.16;76.51;99481.38;6038502;23;20015;-86
2021/01/02 07:44:08;;;;;;;67.53;35.55;;;;;;;5.21;77.29;99488.06;6063410;23;20026;-86
2021/01/02 07:46:44;;;;;;;67.72;37.55;;;;;;;5.18;76.83;99489.97;6042554;23;20026;-86
2021/01/02 07:49:46;;;;;;;72.53;37.15;;;;;;;5.21;76.96;99487.25;6044244;23;20022;-86
2021/01/02 07:52:29;;;;;;;73.05;38.60;;;;;;;5.19;76.55;99505.56;5988695;23;20366;-86
2021/01/02 07:55:34;;;;;;;65.30;35.42;;;;;;;5.15;76.25;99501.38;6011725;23;20458;-86
2021/01/02 07:58:08;;;;;;;62.22;34.10;;;;;;;5.15;76.79;99496.16;6066435;23;20026;-85
2021/01/02 08:00:40;;;;;;;76.57;39.42;;;;;;;5.09;76.63;99497.25;6067169;23;20019;-85
2021/01/02 08:03:32;;;;;;;66.65;33.92;;;;;;;5.11;76.65;99511.97;6065665;23;20019;-85
2021/01/02 08:06:09;;;;;;;66.57;35.10;;;;;;;5.09;76.51;99510.28;6043861;23;20042;-84
2021/01/02 08:09:25;;;;;;;68.32;34.38;;;;;;;5.09;76.42;99517.28;6066123;23;20074;-87
2021/01/02 08:12:10;;;;;;;65.72;33.85;;;;;;;5.11;76.69;99517.19;6066321;23;20022;-86
2021/01/02 08:15:21;;;;;;;71.60;36.20;;;;;;;5.12;76.53;99518.91;6066792;23;20089;-86
2021/01/02 08:17:52;;;;;;;64.65;35.40;;;;;;;5.15;77.14;99516.16;6066530;23;20109;-86
2021/01/02 08:20:25;;;;;;;68.95;36.55;;;;;;;5.15;77.01;99518.78;6044989;23;20086;-86
2021/01/02 08:22:54;;;;;;;70.70;35.90;;;;;;;5.17;76.93;99519.59;6066382;23;20370;-85
2021/01/02 08:25:42;;;;;;;68.85;35.67;;;;;;;5.13;76.51;99523.22;6043441;23;20018;-85
2021/01/02 08:28:26;;;;;;;70.38;35.50;;;;;;;5.15;76.88;99522.25;6066379;23;20034;-87
2021/01/02 08:31:24;;;;;;;67.45;35.25;;;;;;;5.14;76.70;99527.53;6152688;23;20021;-85
2021/01/02 08:34:14;;;;;;;70.15;36.25;;;;;;;5.15;76.67;99534.44;6131386;23;20388;-86
2021/01/02 08:36:42;;;;;;;67.78;34.33;;;;;;;5.17;77.28;99523.06;6130467;23;20024;-86
2021/01/02 08:40:13;;;;;;;63.55;35.25;;;;;;;5.16;76.85;99529.16;6135105;23;20017;-86
2021/01/02 08:43:06;;;;;;;70.00;35.92;;;;;;;5.19;76.33;99533.41;6152704;23;20021;-85
2021/01/02 08:46:42;;;;;;;67.45;32.83;;;;;;;5.20;76.74;99535.13;6019754;23;20030;-86
2021/01/02 08:49:30;;;;;;;63.42;32.67;;;;;;;5.23;76.89;99545.44;6044783;23;20023;-85
2021/01/02 08:52:19;;;;;;;65.05;32.88;;;;;;;5.22;76.79;99542.00;6042789;23;20027;-86
2021/01/02 08:55:14;;;;;;;70.95;36.03;;;;;;;5.21;76.35;99547.25;6042041;23;20351;-85
2021/01/02 08:58:00;;;;;;;62.55;33.13;;;;;;;5.25;76.82;99548.84;6034174;23;20461;-85
2021/01/02 09:00:48;;;;;;;65.82;33.75;;;;;;;5.27;77.00;99544.41;6046201;23;20095;-85
2021/01/02 09:03:23;;;;;;;73.30;37.13;;;;;;;5.24;76.35;99547.16;6041983;23;20026;-85
2021/01/02 09:06:29;;;;;;;72.78;36.40;;;;;;;5.25;76.47;99553.22;6042956;23;20529;-86
2021/01/02 09:09:09;;;;;;;65.68;35.38;;;;;;;5.25;76.74;99553.22;6044867;23;20026;-86
2021/01/02 09:11:51;;;;;;;66.63;33.95;;;;;;;5.22;76.32;99549.81;6066050;23;20029;-85
2021/01/02 09:14:20;;;;;;;64.45;33.45;;;;;;;5.25;76.92;99559.28;6106725;23;20108;-85
2021/01/02 09:17:12;;;;;;;68.45;36.45;;;;;;;5.24;76.74;99557.59;6130284;23;20028;-86
2021/01/02 09:20:03;;;;;;;65.72;36.10;;;;;;;5.26;76.65;99563.59;6130741;23;20101;-86
2021/01/02 09:22:29;;;;;;;67.47;34.42;;;;;;;5.30;77.13;99572.16;6129518;23;20037;-86
2021/01/02 09:25:11;;;;;;;61.67;34.22;;;;;;;5.26;76.79;99574.03;6130566;23;20043;-86
2021/01/02 09:27:47;;;;;;;62.28;34.22;;;;;;;5.29;76.84;99580.88;6130238;23;20021;-85
2021/01/02 09:30:33;;;;;;;68.20;35.00;;;;;;;5.29;76.23;99573.94;6130463;23;20048;-86
2021/01/02 09:33:07;;;;;;;72.00;36.20;;;;;;;5.33;76.92;99574.66;6129594;23;20449;-86
2021/01/02 09:35:39;;;;;;;63.05;35.42;;;;;;;5.32;76.92;99581.66;6145845;23;20017;-82
2021/01/02 09:38:07;;;;;;;65.28;34.63;;;;;;;5.31;77.06;99584.31;6185664;23;20032;-82
2021/01/02 09:40:59;;;;;;;64.47;36.00;;;;;;;5.30;76.57;99593.03;6185645;23;20392;-83
2021/01/02 09:43:46;;;;;;;61.13;32.58;;;;;;;5.29;76.93;99592.19;6183705;23;20044;-82
2021/01/02 09:46:51;;;;;;;63.63;32.63;;;;;;;5.29;76.65;99593.94;6185821;23;20024;-86
2021/01/02 09:49:40;;;;;;;61.20;30.77;;;;;;;5.33;77.27;99591.16;6123679;23;20017;-82
2021/01/02 09:52:38;;;;;;;64.85;33.50;;;;;;;5.35;77.41;99602.38;6159928;23;20100;-83
2021/01/02 09:55:25;;;;;;;61.30;31.30;;;;;;;5.36;77.26;99598.03;6183891;23;20032;-82
2021/01/02 09:57:54;;;;;;;64.22;34.67;;;;;;;5.38;77.35;99603.19;6159749;23;20036;-83
2021/01/02 10:00:21;;;;;;;60.83;34.17;;;;;;;5.40;77.57;99603.97;6185882;23;20017;-82
2021/01/02 10:02:48;;;;;;;63.72;33.90;;;;;;;5.41;77.51;99603.91;6185886;23;20403;-85
2021/01/02 10:05:34;;;;;;;62.92;33.92;;;;;;;5.44;77.48;99603.81;6163811;23;20029;-82
2021/01/02 10:08:01;;;;;;;63.08;33.47;;;;;;;5.46;77.35;99607.19;6185772;23;20021;-82
2021/01/02 10:10:27;;;;;;;65.20;35.50;;;;;;;5.48;77.21;99607.16;6160061;23;20023;-82
2021/01/02 10:12:54;;;;;;;72.18;37.58;;;;;;;5.48;76.95;99599.31;6160815;23;20032;-82
2021/01/02 10:15:20;;;;;;;65.78;35.47;;;;;;;5.48;76.91;99601.91;6187372;23;20025;-82
2021/01/02 10:17:46;;;;;;;62.60;35.40;;;;;;;5.47;77.02;99601.06;6161492;23;20021;-82
2021/01/02 10:20:14;;;;;;;67.28;38.15;;;;;;;5.46;76.98;99596.75;6187488;23;20363;-82
2021/01/02 10:22:40;;;;;;;68.82;38.03;;;;;;;5.46;76.77;99606.38;6161181;23;20043;-83
2021/01/02 10:25:08;;;;;;;69.70;35.83;;;;;;;5.46;77.18;99596.75;6187034;23;20485;-82
2021/01/02 10:27:35;;;;;;;67.78;35.00;;;;;;;5.50;77.68;99600.13;6187127;23;20482;-83
2021/01/02 10:30:01;;;;;;;70.90;39.25;;;;;;;5.52;77.77;99598.28;6187654;23;20017;-84
2021/01/02 10:32:30;;;;;;;72.28;37.65;;;;;;;5.56;77.94;99599.88;6186836;23;20025;-84
2021/01/02 10:34:57;;;;;;;78.25;38.53;;;;;;;5.60;77.79;99598.84;6187325;23;20024;-84
2021/01/02 10:37:26;;;;;;;66.88;36.78;;;;;;;5.64;77.38;99590.91;6187229;23;20029;-84
2021/01/02 10:39:53;;;;;;;66.72;33.75;;;;;;;5.68;77.46;99592.47;6186985;23;20021;-84
2021/01/02 10:42:26;;;;;;;72.63;37.00;;;;;;;5.69;76.64;99602.84;6189140;23;20021;-85
2021/01/02 10:44:52;;;;;;;70.18;37.78;;;;;;;5.71;76.81;99595.81;6187067;23;20099;-83
2021/01/02 10:47:21;;;;;;;67.47;36.85;;;;;;;5.71;76.30;99597.56;6187412;23;20079;-84
2021/01/02 10:49:48;;;;;;;70.75;37.42;;;;;;;5.70;76.28;99591.50;6187369;23;20024;-83
2021/01/02 10:52:17;;;;;;;71.95;38.22;;;;;;;5.68;76.56;99588.09;6187126;23;20036;-83
2021/01/02 10:54:44;;;;;;;67.75;37.38;;;;;;;5.69;76.64;99588.94;6187262;23;20028;-83
2021/01/02 10:57:11;;;;;;;72.95;38.22;;;;;;;5.68;76.72;99584.66;6187345;23;20021;-83
2021/01/02 10:59:38;;;;;;;78.20;40.30;;;;;;;5.66;76.72;99576.88;6187349;23;20444;-83
2021/01/02 11:02:04;;;;;;;76.47;39.00;;;;;;;5.67;77.03;99582.91;6186919;23;20102;-84
2021/01/02 11:04:33;;;;;;;78.07;37.45;;;;;;;5.68;77.07;99574.19;6187067;23;20079;-84
2021/01/02 11:06:59;;;;;;;71.03;39.65;;;;;;;5.68;77.24;99566.38;6187237;23;20032;-84
2021/01/02 11:09:25;;;;;;;74.00;38.88;;;;;;;5.69;76.94;99571.50;6187140;23;20028;-84
2021/01/02 11:11:53;;;;;;;77.95;41.05;;;;;;;5.67;76.59;99564.63;6187174;23;20021;-84
2021/01/02 11:14:21;;;;;;;74.40;37.75;;;;;;;5.68;76.54;99572.41;6186538;23;20079;-84
2021/01/02 11:16:48;;;;;;;70.55;37.03;;;;;;;5.68;76.88;99561.16;6186801;23;20025;-84
2021/01/02 11:19:21;;;;;;;64.35;35.80;;;;;;;5.68;76.31;99566.38;6186616;23;20087;-84
2021/01/02 11:21:49;;;;;;;73.30;37.35;;;;;;;5.68;76.66;99559.38;6186726;23;20032;-84
2021/01/02 11:24:20;;;;;;;67.85;36.97;;;;;;;5.68;76.44;99559.38;6186367;23;20025;-83
2021/01/02 11:26:48;;;;;;;73.65;38.70;;;;;;;5.69;76.96;99555.00;6187140;23;20028;-84
2021/01/02 11:29:19;;;;;;;72.32;39.40;;;;;;;5.69;76.87;99550.59;6187054;23;20032;-85
2021/01/02 11:31:48;;;;;;;78.05;40.72;;;;;;;5.72;77.01;99547.06;6187008;23;20025;-84
2021/01/02 11:34:21;;;;;;;68.10;35.30;;;;;;;5.74;77.28;99547.81;6186450;23;20380;-84
2021/01/02 11:36:52;;;;;;;75.25;38.13;;;;;;;5.77;77.50;99545.09;6186658;23;20032;-85
2021/01/02 11:39:19;;;;;;;71.75;39.08;;;;;;;5.82;77.66;99548.38;6160779;23;20020;-84
2021/01/02 11:41:45;;;;;;;66.55;34.88;;;;;;;5.87;77.87;99541.19;6186914;23;20029;-84
2021/01/02 11:44:14;;;;;;;68.40;35.25;;;;;;;5.92;77.59;99541.00;6186572;23;20044;-84
2021/01/02 11:46:43;;;;;;;68.40;35.95;;;;;;;5.98;77.68;99537.31;6161034;23;20448;-84
2021/01/02 11:49:12;;;;;;;68.28;36.58;;;;;;;6.03;77.50;99545.81;6160489;23;20447;-84
2021/01/02 11:51:38;;;;;;;69.30;36.50;;;;;;;6.07;77.37;99536.94;6186801;23;20024;-84
2021/01/02 11:54:05;;;;;;;71.63;36.85;;;;;;;6.11;77.01;99535.03;6186374;23;20025;-86
2021/01/02 11:56:32;;;;;;;70.13;38.60;;;;;;;6.15;76.85;99533.13;6188285;23;20344;-85
2021/01/02 11:59:02;;;;;;;63.88;36.38;;;;;;;6.13;76.22;99535.81;6188440;23;20040;-84
2021/01/02 12:01:43;;;;;;;69.70;37.92;;;;;;;6.12;75.39;99531.50;6188749;23;20021;-86
2021/01/02 12:04:12;;;;;;;69.88;37.55;;;;;;;6.13;76.54;99535.81;6187502;23;20032;-85
2021/01/02 12:06:38;;;;;;;68.78;37.30;;;;;;;6.15;76.75;99525.28;6188686;23;20020;-84
2021/01/02 12:09:07;;;;;;;65.88;36.85;;;;;;;6.13;76.14;99520.13;6160745;23;20333;-83
2021/01/02 12:11:38;;;;;;;68.85;39.03;;;;;;;6.10;75.44;99531.56;6186611;23;20099;-84
2021/01/02 12:14:07;;;;;;;67.00;35.90;;;;;;;6.11;76.01;99527.19;6186360;23;20025;-84
2021/01/02 12:16:39;;;;;;;61.47;34.92;;;;;;;6.06;75.47;99524.75;6186138;23;20029;-84
2021/01/02 12:19:07;;;;;;;66.97;34.65;;;;;;;6.07;76.06;99536.09;6186919;23;20028;-84
2021/01/02 12:21:34;;;;;;;66.38;35.33;;;;;;;6.05;76.20;99536.13;6186424;23;20387;-84
2021/01/02 12:24:00;;;;;;;64.03;33.95;;;;;;;6.05;76.37;99533.53;6186244;23;20021;-82
2021/01/02 12:26:27;;;;;;;61.90;35.05;;;;;;;6.04;76.37;99531.84;6186370;23;20021;-82
2021/01/02 12:28:53;;;;;;;60.53;33.78;;;;;;;6.05;76.40;99535.31;6186020;23;20491;-82
2021/01/02 12:31:43;;;;;;;62.10;33.67;;;;;;;6.05;76.32;99524.84;6186490;23;20025;-82
2021/01/02 12:34:10;;;;;;;60.67;32.60;;;;;;;6.05;76.59;99530.91;6185782;23;20032;-84
2021/01/02 12:36:39;;;;;;;71.43;36.20;;;;;;;6.06;76.80;99534.38;6154642;23;20022;-82
2021/01/02 12:39:07;;;;;;;63.67;33.92;;;;;;;6.09;76.72;99531.66;6156538;23;20388;-82
2021/01/02 12:41:34;;;;;;;64.55;32.58;;;;;;;6.11;76.71;99533.28;6156111;23;20018;-82
2021/01/02 12:44:00;;;;;;;62.10;33.60;;;;;;;6.13;76.66;99531.44;6156621;23;20022;-82
2021/01/02 12:46:26;;;;;;;61.20;33.22;;;;;;;6.18;76.88;99540.84;6156375;23;20021;-82
2021/01/02 12:48:52;;;;;;;60.35;31.70;;;;;;;6.19;76.82;99537.31;6156131;23;20032;-82
2021/01/02 12:51:21;;;;;;;61.65;33.25;;;;;;;6.22;76.60;99537.19;6156073;23;20393;-82